Time;durP1;ratioP1;P1;durP2;ratioP2;P2;SDS_P1;SDS_P2;PMS_P1;PMS_P2;Temp;Humidity;BMP_temperature;BMP_pressure;BME280_temperature;BME280_humidity;BME280_pressure;Samples;Min_cycle;Max_cycle;Signal;HPM_P1;HPM_P2
2022/01/19 00:01:32;;;;;;;4.72;0.90;;;5.50;99.90;;;;;;5070976;28;20735;-68
2022/01/19 00:03:57;;;;;;;2.70;0.85;;;5.50;99.90;;;;;;5071985;28;20020;-68
2022/01/19 00:06:23;;;;;;;3.15;1.10;;;5.50;99.90;;;;;;5072144;28;20039;-68
2022/01/19 00:08:50;;;;;;;1.45;0.75;;;5.50;99.90;;;;;;5072180;28;20023;-68
2022/01/19 00:11:16;;;;;;;1.42;0.82;;;5.50;99.90;;;;;;5072341;28;20041;-68
2022/01/19 00:13:42;;;;;;;3.22;0.80;;;5.50;99.90;;;;;;5071871;28;20028;-68
2022/01/19 00:16:08;;;;;;;2.38;0.70;;;5.50;99.90;;;;;;5072041;28;20502;-69
2022/01/19 00:18:34;;;;;;;3.00;0.80;;;5.50;99.90;;;;;;5071864;28;20029;-68
2022/01/19 00:21:00;;;;;;;0.98;0.70;;;5.50;99.90;;;;;;5071962;28;20132;-68
2022/01/19 00:23:26;;;;;;;3.35;0.90;;;5.50;99.90;;;;;;5072221;28;20070;-68
2022/01/19 00:25:54;;;;;;;2.78;0.80;;;5.50;99.90;;;;;;5071795;28;20066;-68
2022/01/19 00:28:20;;;;;;;2.10;0.75;;;5.50;99.90;;;;;;5071880;28;20020;-69
2022/01/19 00:30:46;;;;;;;1.67;0.70;;;5.50;99.90;;;;;;5071684;28;20114;-68
2022/01/19 00:33:13;;;;;;;0.52;0.50;;;5.50;99.90;;;;;;5072127;28;20111;-68
2022/01/19 00:35:40;;;;;;;0.60;0.50;;;5.50;99.90;;;;;;5071636;28;20028;-68
2022/01/19 00:38:07;;;;;;;2.15;0.70;;;5.50;99.90;;;;;;5071728;28;20048;-68
2022/01/19 00:40:34;;;;;;;1.00;0.70;;;5.50;99.90;;;;;;5071692;28;20031;-68
2022/01/19 00:43:00;;;;;;;1.98;0.65;;;5.50;99.90;;;;;;5071626;28;20029;-68
2022/01/19 00:45:26;;;;;;;3.85;0.80;;;5.50;99.90;;;;;;5071802;28;20024;-68
2022/01/19 00:47:52;;;;;;;0.75;0.60;;;5.50;99.90;;;;;;5071918;28;20031;-68
2022/01/19 00:50:22;;;;;;;0.98;0.60;;;5.50;99.90;;;;;;5071752;28;20047;-69
2022/01/19 00:52:49;;;;;;;1.88;0.80;;;5.60;99.90;;;;;;5071538;28;20106;-68
2022/01/19 00:55:15;;;;;;;0.80;0.60;;;5.60;99.90;;;;;;5071677;28;20032;-68
2022/01/19 00:57:41;;;;;;;0.63;0.63;;;5.50;99.90;;;;;;5071811;28;20027;-68
2022/01/19 01:00:10;;;;;;;0.77;0.52;;;5.60;99.90;;;;;;5071686;28;20017;-69
2022/01/19 01:02:36;;;;;;;0.60;0.50;;;5.60;99.90;;;;;;5071330;28;20025;-69
2022/01/19 01:05:03;;;;;;;1.27;0.70;;;5.60;99.90;;;;;;5071548;28;20028;-68
2022/01/19 01:07:30;;;;;;;0.75;0.70;;;5.60;99.90;;;;;;5073528;28;20035;-69
2022/01/19 01:09:55;;;;;;;2.00;0.50;;;5.60;99.90;;;;;;5075205;28;20055;-70
2022/01/19 01:12:28;;;;;;;1.95;0.75;;;5.60;99.90;;;;;;5075276;28;20025;-70
2022/01/19 01:20:30;;;;;;;1.45;0.50;;;5.60;99.90;;;;;;5062831;28;20471;-70
2022/01/19 01:22:56;;;;;;;0.40;0.40;;;5.60;99.90;;;;;;5075018;28;20017;-70
2022/01/19 01:25:22;;;;;;;0.50;0.50;;;5.60;99.90;;;;;;5075145;28;20494;-70
2022/01/19 01:27:48;;;;;;;0.50;0.50;;;5.60;99.90;;;;;;5075098;28;20413;-69
2022/01/19 01:30:14;;;;;;;0.57;0.50;;;5.60;99.90;;;;;;5074899;28;20075;-69
2022/01/19 01:32:40;;;;;;;1.48;0.60;;;5.60;99.90;;;;;;5074974;28;20029;-69
2022/01/19 01:35:07;;;;;;;0.75;0.50;;;5.70;99.90;;;;;;5074929;28;20101;-69
2022/01/19 01:37:33;;;;;;;1.20;0.50;;;5.60;99.90;;;;;;5074801;28;20072;-70
2022/01/19 01:40:01;;;;;;;0.45;0.45;;;5.60;99.90;;;;;;5074699;28;20519;-70
2022/01/19 01:42:27;;;;;;;0.93;0.50;;;5.60;99.90;;;;;;5074990;28;20028;-70
2022/01/19 01:44:55;;;;;;;0.57;0.57;;;5.60;99.90;;;;;;5074652;28;20039;-70
2022/01/19 01:47:22;;;;;;;0.50;0.50;;;5.60;99.90;;;;;;5074695;28;20048;-70
2022/01/19 01:55:20;;;;;;;0.68;0.50;;;5.60;99.90;;;;;;5074562;28;20023;-71
2022/01/19 01:57:46;;;;;;;0.40;0.40;;;5.70;99.90;;;;;;5073275;28;20383;-71
2022/01/19 02:00:16;;;;;;;0.50;0.50;;;5.60;99.90;;;;;;5062699;28;20032;-71
2022/01/19 02:02:42;;;;;;;0.93;0.50;;;5.70;99.90;;;;;;5054759;28;20052;-71
2022/01/19 02:05:10;;;;;;;0.60;0.60;;;5.70;99.90;;;;;;5054507;28;20029;-70
2022/01/19 02:08:01;;;;;;;0.93;0.50;;;5.70;99.90;;;;;;5054389;28;20488;-71
2022/01/19 02:21:44;;;;;;;0.40;0.40;;;5.70;99.90;;;;;;5054466;28;20491;-70
2022/01/19 02:24:14;;;;;;;0.50;0.50;;;5.70;99.90;;;;;;5053981;28;20526;-70
2022/01/19 02:53:19;;;;;;;0.50;0.50;;;5.70;99.90;;;;;;5052768;28;20057;-69
2022/01/19 02:55:45;;;;;;;0.40;0.40;;;5.70;99.90;;;;;;5053481;28;20032;-69
2022/01/19 02:58:14;;;;;;;0.40;0.40;;;5.70;99.90;;;;;;5053351;28;20021;-69
2022/01/19 03:37:04;;;;;;;0.52;0.52;;;5.80;99.90;;;;;;5820007;22;20052;-70
2022/01/19 03:39:30;;;;;;;0.47;0.47;;;5.80;99.90;;;;;;5052443;28;20028;-70
2022/01/19 03:41:56;;;;;;;0.50;0.50;;;5.80;99.90;;;;;;5052087;28;20468;-70
2022/01/19 03:44:22;;;;;;;0.50;0.50;;;5.80;99.90;;;;;;5052560;28;20078;-70
2022/01/19 03:46:57;;;;;;;2.08;0.50;;;5.80;99.90;;;;;;5052562;28;20029;-70
2022/01/19 03:49:25;;;;;;;0.47;0.47;;;5.80;99.90;;;;;;5052537;28;20017;-70
2022/01/19 03:51:52;;;;;;;0.55;0.45;;;5.80;99.90;;;;;;5052193;28;20067;-70
2022/01/19 03:54:18;;;;;;;0.40;0.40;;;5.90;99.90;;;;;;5052395;28;20017;-70
2022/01/19 03:56:44;;;;;;;0.40;0.40;;;5.90;99.90;;;;;;5052581;28;20028;-70
2022/01/19 03:59:10;;;;;;;0.50;0.50;;;5.90;99.90;;;;;;5052133;28;20036;-70
2022/01/19 04:01:36;;;;;;;0.43;0.40;;;5.90;99.90;;;;;;5052479;28;20146;-70
2022/01/19 04:04:32;;;;;;;0.50;0.50;;;5.90;99.90;;;;;;5052038;28;20025;-70
2022/01/19 04:07:02;;;;;;;0.45;0.45;;;6.00;99.90;;;;;;5052098;28;20025;-70
2022/01/19 04:09:30;;;;;;;1.10;0.50;;;5.90;99.90;;;;;;5052190;28;20375;-70
2022/01/19 04:11:56;;;;;;;0.50;0.50;;;6.00;99.90;;;;;;5051937;28;20044;-70
2022/01/19 04:14:22;;;;;;;1.15;0.50;;;6.00;99.90;;;;;;5052109;28;20017;-70
2022/01/19 04:17:09;;;;;;;1.15;0.50;;;6.00;99.90;;;;;;5067506;28;20395;-71
2022/01/19 04:22:10;;;;;;;3.95;0.60;;;6.00;99.90;;;;;;5052121;28;20036;-71
2022/01/19 04:24:37;;;;;;;2.13;0.50;;;6.00;99.90;;;;;;5052006;28;20021;-70
2022/01/19 04:29:55;;;;;;;0.50;0.50;;;6.00;99.90;;;;;;5052289;28;20033;-72
2022/01/19 04:32:28;;;;;;;1.55;0.50;;;6.00;99.90;;;;;;5052271;28;20045;-72
2022/01/19 04:34:54;;;;;;;1.33;0.60;;;6.00;99.90;;;;;;5051930;28;20030;-72
2022/01/19 05:07:03;;;;;;;0.60;0.60;;;6.00;99.90;;;;;;5055784;28;20021;-71
2022/01/19 05:14:45;;;;;;;1.85;0.70;;;6.00;99.90;;;;;;5054624;28;20028;-70
2022/01/19 05:17:11;;;;;;;1.30;0.60;;;6.10;99.90;;;;;;5055327;28;20031;-71
2022/01/19 05:19:37;;;;;;;0.85;0.60;;;6.10;99.90;;;;;;5055159;28;20534;-69
2022/01/19 05:22:03;;;;;;;2.50;0.70;;;6.10;99.90;;;;;;5055008;28;20017;-69
2022/01/19 05:24:29;;;;;;;2.10;0.65;;;6.10;99.90;;;;;;5055314;28;20490;-69
2022/01/19 05:26:55;;;;;;;1.23;0.65;;;6.10;99.90;;;;;;5054923;28;20063;-70
2022/01/19 05:29:21;;;;;;;1.52;0.65;;;6.10;99.90;;;;;;5055307;28;20025;-69
2022/01/19 05:31:46;;;;;;;0.63;0.63;;;6.10;99.90;;;;;;5054849;28;20090;-70
2022/01/19 05:34:12;;;;;;;0.55;0.55;;;6.10;99.90;;;;;;5054778;28;20025;-69
2022/01/19 05:36:38;;;;;;;1.15;0.50;;;6.20;99.90;;;;;;5054598;28;20025;-71
2022/01/19 05:39:05;;;;;;;0.82;0.70;;;7.50;99.90;;;;;;5054718;28;20025;-70
2022/01/19 05:41:32;;;;;;;0.80;0.52;;;7.60;99.90;;;;;;5054605;28;20025;-71
2022/01/19 05:43:57;;;;;;;4.30;1.05;;;7.30;99.90;;;;;;5064471;28;20475;-79
2022/01/19 05:46:23;;;;;;;2.65;1.05;;;7.00;99.90;;;;;;5071611;28;20061;-76
2022/01/19 05:48:49;;;;;;;1.05;0.77;;;6.80;99.90;;;;;;5073784;28;20383;-71
2022/01/19 05:51:15;;;;;;;3.30;0.75;;;6.80;99.90;;;;;;5073824;28;20501;-74
2022/01/19 05:53:41;;;;;;;1.83;0.90;;;6.70;99.90;;;;;;5073618;28;20081;-71
2022/01/19 05:56:07;;;;;;;5.50;0.93;;;6.60;99.90;;;;;;5073979;28;20068;-73
2022/01/19 05:58:33;;;;;;;0.75;0.65;;;6.50;99.90;;;;;;5073833;28;20045;-73
2022/01/19 06:00:59;;;;;;;4.75;0.77;;;6.50;99.90;;;;;;5069008;28;20031;-70
2022/01/19 06:03:25;;;;;;;3.45;0.70;;;6.50;99.90;;;;;;5065455;28;20021;-69
2022/01/19 06:05:51;;;;;;;3.20;0.75;;;6.50;99.90;;;;;;5071926;28;20055;-69
2022/01/19 06:10:47;;;;;;;3.22;0.85;;;6.40;99.90;;;;;;5071545;28;20066;-69
2022/01/19 06:13:18;;;;;;;1.67;0.70;;;6.40;99.90;;;;;;5072784;28;20020;-69
2022/01/19 06:15:45;;;;;;;1.10;0.70;;;6.40;99.90;;;;;;5073067;28;20048;-69
2022/01/19 06:18:11;;;;;;;1.75;0.90;;;6.40;99.90;;;;;;5070508;28;20518;-67
2022/01/19 06:20:37;;;;;;;1.88;1.00;;;6.40;99.90;;;;;;5067090;28;20031;-68
2022/01/19 06:23:03;;;;;;;1.60;0.90;;;6.50;99.90;;;;;;5068093;28;20029;-68
2022/01/19 06:25:29;;;;;;;5.05;1.20;;;6.60;99.90;;;;;;5070843;28;20478;-68
2022/01/19 06:27:55;;;;;;;2.17;1.20;;;6.60;99.90;;;;;;5073844;28;20025;-67
2022/01/19 06:30:21;;;;;;;2.58;1.10;;;6.70;99.90;;;;;;5073730;28;20032;-63
2022/01/19 06:32:48;;;;;;;2.70;0.90;;;6.80;99.90;;;;;;5074126;28;20040;-63
2022/01/19 06:35:14;;;;;;;6.88;1.23;;;6.80;99.90;;;;;;5073864;28;20025;-65
2022/01/19 06:37:39;;;;;;;1.80;0.70;;;6.70;99.90;;;;;;5073502;28;20058;-65
2022/01/19 06:40:07;;;;;;;3.50;0.77;;;6.80;99.90;;;;;;5073872;28;20024;-65
2022/01/19 06:42:33;;;;;;;3.92;1.40;;;6.70;99.90;;;;;;5073977;28;20086;-65
2022/01/19 06:44:59;;;;;;;7.03;1.88;;;6.70;99.90;;;;;;5073709;28;20418;-66
2022/01/19 06:47:25;;;;;;;2.75;0.70;;;6.70;99.90;;;;;;5073606;28;20021;-66
2022/01/19 06:49:50;;;;;;;3.05;0.80;;;6.70;99.90;;;;;;5073514;28;20029;-66
2022/01/19 06:52:16;;;;;;;2.20;0.57;;;6.70;99.90;;;;;;5073357;28;20040;-66
2022/01/19 06:54:42;;;;;;;11.98;3.17;;;6.70;99.90;;;;;;5073437;28;20021;-68
2022/01/19 06:57:08;;;;;;;10.10;3.88;;;6.80;99.90;;;;;;5073318;28;20017;-69
2022/01/19 06:59:33;;;;;;;5.32;1.45;;;7.50;99.90;;;;;;5073409;28;20020;-69
2022/01/19 07:01:59;;;;;;;1.63;1.02;;;7.90;99.90;;;;;;5072268;28;20024;-71
2022/01/19 07:04:25;;;;;;;2.47;1.00;;;7.80;99.90;;;;;;5072381;28;20021;-71
2022/01/19 07:06:51;;;;;;;1.75;0.70;;;7.50;99.90;;;;;;5073391;28;20071;-71
2022/01/19 07:09:17;;;;;;;2.30;0.80;;;7.30;99.90;;;;;;5073274;28;20021;-72
2022/01/19 07:11:42;;;;;;;7.55;0.85;;;7.10;99.90;;;;;;5072991;28;20115;-71
2022/01/19 07:14:08;;;;;;;1.90;0.65;;;7.00;99.90;;;;;;5073102;28;20025;-72
2022/01/19 07:16:34;;;;;;;1.77;0.80;;;6.90;99.90;;;;;;5073143;28;20032;-71
2022/01/19 07:19:00;;;;;;;1.60;0.70;;;6.90;99.90;;;;;;5073191;28;20021;-69
2022/01/19 07:21:26;;;;;;;0.95;0.70;;;6.80;99.90;;;;;;5071724;28;20463;-68
2022/01/19 07:23:52;;;;;;;0.77;0.60;;;6.70;99.90;;;;;;5072659;28;20024;-69
2022/01/19 07:26:17;;;;;;;4.85;0.52;;;6.60;99.90;;;;;;5072473;28;20024;-68
2022/01/19 07:28:43;;;;;;;5.60;1.80;;;7.00;99.90;;;;;;5073062;28;20020;-68
2022/01/19 07:31:09;;;;;;;3.67;1.33;;;7.20;99.90;;;;;;5072629;28;20403;-68
2022/01/19 07:33:35;;;;;;;1.90;0.77;;;7.60;99.90;;;;;;5072937;28;20103;-70
2022/01/19 07:36:01;;;;;;;2.30;0.70;;;8.10;99.90;;;;;;5072525;28;20137;-72
2022/01/19 07:38:27;;;;;;;1.00;0.60;;;7.70;99.90;;;;;;5072446;28;20052;-71
2022/01/19 07:40:54;;;;;;;2.30;0.98;;;7.40;99.90;;;;;;5072284;28;20094;-70
2022/01/19 07:43:19;;;;;;;5.45;0.88;;;7.10;99.90;;;;;;5072317;28;20024;-69
2022/01/19 07:45:45;;;;;;;5.63;1.00;;;7.00;99.90;;;;;;5072460;28;20021;-69
2022/01/19 07:48:11;;;;;;;6.82;0.70;;;6.90;99.90;;;;;;5071707;28;20463;-68
2022/01/19 07:50:38;;;;;;;1.33;0.70;;;7.00;99.90;;;;;;5069918;28;20147;-70
2022/01/19 07:53:05;;;;;;;1.85;0.65;;;6.90;99.90;;;;;;5071967;28;20058;-73
2022/01/19 07:55:32;;;;;;;3.03;0.82;;;6.80;99.90;;;;;;5071908;28;20058;-69
2022/01/19 07:57:57;;;;;;;30.35;11.35;;;6.80;99.90;;;;;;5072089;28;20399;-70
2022/01/19 08:00:23;;;;;;;211.57;82.78;;;6.70;99.90;;;;;;5071283;28;20031;-68
2022/01/19 08:02:49;;;;;;;94.93;41.85;;;6.60;99.90;;;;;;5071933;28;20024;-69
2022/01/19 08:05:16;;;;;;;16.38;8.68;;;6.60;99.90;;;;;;5071840;28;20472;-71
2022/01/19 08:07:43;;;;;;;14.07;8.45;;;6.60;99.90;;;;;;5072335;28;20495;-70
2022/01/19 08:10:10;;;;;;;28.63;15.75;;;6.60;99.90;;;;;;5071265;28;20031;-67
2022/01/19 08:12:37;;;;;;;5.47;3.17;;;6.50;99.90;;;;;;5071516;28;20068;-69
2022/01/19 08:15:04;;;;;;;3.88;1.08;;;6.50;99.90;;;;;;5068580;28;20024;-64
2022/01/19 08:17:30;;;;;;;13.38;12.15;;;6.50;99.90;;;;;;5071393;28;20032;-64
2022/01/19 08:19:56;;;;;;;5.40;5.00;;;6.40;99.90;;;;;;5071697;28;20020;-65
2022/01/19 08:22:23;;;;;;;5.22;4.45;;;6.40;99.90;;;;;;5071445;28;20028;-64
2022/01/19 08:24:48;;;;;;;4.05;1.40;;;6.50;99.90;;;;;;5071652;28;20471;-64
2022/01/19 08:27:15;;;;;;;3.33;0.70;;;6.40;99.90;;;;;;5071891;28;20078;-64
2022/01/19 08:29:41;;;;;;;1.23;0.95;;;6.40;99.90;;;;;;5071810;28;20028;-64
2022/01/19 08:32:07;;;;;;;3.50;0.88;;;6.40;99.90;;;;;;5071277;28;20092;-64
2022/01/19 08:34:34;;;;;;;1.77;0.60;;;6.40;99.90;;;;;;5072035;28;20031;-65
2022/01/19 08:37:00;;;;;;;1.40;0.60;;;6.40;99.90;;;;;;5069810;28;20179;-65
2022/01/19 08:39:26;;;;;;;3.20;1.80;;;6.40;99.90;;;;;;5056716;28;20036;-67
2022/01/19 08:41:53;;;;;;;15.43;10.60;;;6.40;99.90;;;;;;5061103;28;20025;-67
2022/01/19 08:44:21;;;;;;;5.88;4.47;;;6.40;99.90;;;;;;5070495;28;20115;-67
2022/01/19 08:46:48;;;;;;;4.03;2.53;;;6.40;99.90;;;;;;5066809;28;20035;-67
2022/01/19 08:49:14;;;;;;;1.75;0.90;;;6.40;99.90;;;;;;5069966;28;20060;-66
2022/01/19 08:51:40;;;;;;;1.38;0.77;;;6.40;99.90;;;;;;5070930;28;20131;-66
2022/01/19 08:54:06;;;;;;;1.35;0.65;;;6.40;99.90;;;;;;5067718;28;20496;-67
2022/01/19 08:56:32;;;;;;;1.15;0.80;;;6.30;99.90;;;;;;5071068;28;20418;-66
2022/01/19 08:58:58;;;;;;;1.65;0.80;;;6.30;99.90;;;;;;5071715;28;20028;-66
2022/01/19 09:01:25;;;;;;;1.65;0.95;;;6.40;99.90;;;;;;5071010;28;20024;-66
2022/01/19 09:03:51;;;;;;;0.80;0.70;;;6.40;99.90;;;;;;5071260;28;20059;-66
2022/01/19 09:06:18;;;;;;;0.70;0.70;;;6.30;99.90;;;;;;5071070;28;20060;-67
2022/01/19 09:08:44;;;;;;;2.60;1.00;;;6.40;99.90;;;;;;5071478;28;20451;-67
2022/01/19 09:11:11;;;;;;;0.50;0.50;;;6.30;99.90;;;;;;5071266;28;20071;-67
2022/01/19 09:13:37;;;;;;;1.98;0.73;;;6.30;99.90;;;;;;5071784;28;20024;-68
2022/01/19 09:16:03;;;;;;;1.52;0.80;;;6.30;99.90;;;;;;5071546;28;20456;-68
2022/01/19 09:18:28;;;;;;;1.75;0.70;;;6.30;99.90;;;;;;5071746;28;20047;-67
2022/01/19 09:20:54;;;;;;;3.28;0.90;;;6.40;99.90;;;;;;5071693;28;20449;-70
2022/01/19 09:23:20;;;;;;;1.63;0.80;;;6.40;99.90;;;;;;5071218;28;20463;-69
2022/01/19 09:25:45;;;;;;;3.90;0.80;;;6.40;99.90;;;;;;5071346;28;20027;-69
2022/01/19 09:28:11;;;;;;;16.73;1.38;;;6.30;99.90;;;;;;5072436;28;20036;-69
2022/01/19 09:30:40;;;;;;;5.35;0.85;;;6.70;99.90;;;;;;5075082;28;20036;-69
2022/01/19 09:33:10;;;;;;;1.15;1.05;;;6.80;99.90;;;;;;5075172;28;20063;-69
2022/01/19 09:38:31;;;;;;;2.40;0.85;;;6.70;99.90;;;;;;5074615;28;20053;-69
2022/01/19 09:40:58;;;;;;;0.90;0.60;;;6.60;99.90;;;;;;5075190;28;20033;-73
2022/01/19 09:43:25;;;;;;;1.75;0.70;;;6.50;99.90;;;;;;5074866;28;20550;-69
2022/01/19 09:45:56;;;;;;;3.05;0.73;;;6.50;99.90;;;;;;5075029;28;20082;-68
2022/01/19 09:48:24;;;;;;;0.52;0.52;;;6.40;99.90;;;;;;5074861;28;20378;-68
2022/01/19 09:50:50;;;;;;;1.17;0.75;;;6.40;99.90;;;;;;5073672;28;20395;-72
2022/01/19 09:53:16;;;;;;;2.30;0.70;;;6.40;99.90;;;;;;5074750;28;20028;-67
2022/01/19 09:55:41;;;;;;;2.53;1.00;;;6.40;99.90;;;;;;5074661;28;20028;-67
2022/01/19 09:58:09;;;;;;;1.02;0.80;;;7.40;99.90;;;;;;5074377;28;20024;-71
2022/01/19 10:00:35;;;;;;;0.73;0.60;;;7.90;99.90;;;;;;5074665;28;20023;-71
2022/01/19 10:03:21;;;;;;;4.70;1.13;;;7.60;99.90;;;;;;5074567;28;20020;-69
2022/01/19 10:05:55;;;;;;;3.63;0.80;;;8.20;99.90;;;;;;5074551;28;20024;-69
2022/01/19 10:08:28;;;;;;;2.95;0.50;;;9.90;99.90;;;;;;5074271;28;20021;-70
2022/01/19 10:11:13;;;;;;;0.95;0.47;;;9.50;99.90;;;;;;5074571;28;20059;-70
2022/01/19 10:16:59;;;;;;;4.03;0.75;;;8.20;99.90;;;;;;5032856;28;20399;-70
2022/01/19 10:19:32;;;;;;;0.57;0.57;;;7.70;99.90;;;;;;5073988;28;20085;-70
2022/01/19 10:22:04;;;;;;;1.55;0.70;;;7.40;99.90;;;;;;5073962;28;20032;-70
2022/01/19 10:24:56;;;;;;;37.70;19.23;;;7.30;99.90;;;;;;5073994;28;20542;-70
2022/01/19 10:27:37;;;;;;;256.42;139.75;;;7.20;99.90;;;;;;5071473;28;20104;-68
2022/01/19 10:30:03;;;;;;;67.97;35.85;;;7.10;99.90;;;;;;5071779;28;20031;-70
2022/01/19 10:32:40;;;;;;;264.92;164.70;;;6.90;99.90;;;;;;5057373;28;20029;-68
2022/01/19 10:35:20;;;;;;;14.30;9.65;;;6.90;99.90;;;;;;5072445;28;20023;-68
2022/01/19 10:37:49;;;;;;;9.35;8.40;;;6.70;99.90;;;;;;5071363;28;20053;-68
2022/01/19 10:40:19;;;;;;;3.95;1.63;;;6.60;99.90;;;;;;5072158;28;20112;-66
2022/01/19 10:42:47;;;;;;;1.27;1.17;;;6.60;99.90;;;;;;5064471;28;20025;-69
2022/01/19 10:45:14;;;;;;;1.13;0.75;;;6.50;99.90;;;;;;5069273;28;20017;-67
2022/01/19 10:47:53;;;;;;;2.15;0.63;;;6.50;99.90;;;;;;5070491;28;20025;-68
2022/01/19 10:50:31;;;;;;;0.60;0.55;;;6.40;99.90;;;;;;5072644;28;20352;-68
2022/01/19 10:52:59;;;;;;;2.55;0.73;;;6.40;99.90;;;;;;5070116;28;20029;-70
2022/01/19 10:55:30;;;;;;;0.52;0.50;;;6.40;99.90;;;;;;5071517;28;20082;-68
2022/01/19 10:57:57;;;;;;;3.95;1.70;;;6.40;99.90;;;;;;5071742;28;20021;-68
2022/01/19 11:00:28;;;;;;;1.20;1.20;;;6.30;99.90;;;;;;5069080;28;20511;-72
2022/01/19 11:03:17;;;;;;;192.88;105.75;;;6.30;99.90;;;;;;5069862;28;20039;-69
2022/01/19 11:06:00;;;;;;;25.90;19.40;;;6.20;99.90;;;;;;5057203;28;20055;-69
2022/01/19 11:08:28;;;;;;;6.40;5.80;;;6.20;99.90;;;;;;5052902;28;20496;-68
2022/01/19 11:10:56;;;;;;;22.27;20.15;;;6.20;99.90;;;;;;5052977;28;20047;-73
2022/01/19 11:13:38;;;;;;;4.53;3.78;;;6.20;99.90;;;;;;5053092;28;20057;-75
2022/01/19 11:16:04;;;;;;;4.95;3.50;;;6.20;99.90;;;;;;5053112;28;20096;-75
2022/01/19 11:18:32;;;;;;;2.60;2.40;;;6.20;99.90;;;;;;5053145;28;20025;-75
2022/01/19 11:21:19;;;;;;;2.97;2.40;;;6.20;99.90;;;;;;5052941;28;20033;-75
2022/01/19 11:24:05;;;;;;;4.10;1.00;;;6.20;99.90;;;;;;5052987;28;20043;-75
2022/01/19 11:26:31;;;;;;;3.65;1.60;;;6.20;99.90;;;;;;5053229;28;20037;-76
2022/01/19 11:29:14;;;;;;;1.55;1.42;;;6.20;99.90;;;;;;5052868;28;20031;-75
2022/01/19 11:31:40;;;;;;;1.95;0.88;;;6.20;99.90;;;;;;5053183;28;20391;-75
2022/01/19 11:34:06;;;;;;;1.13;0.68;;;6.20;99.90;;;;;;5058827;28;20024;-76
2022/01/19 11:36:36;;;;;;;0.50;0.50;;;6.10;99.90;;;;;;5072432;28;20414;-76
2022/01/19 11:39:20;;;;;;;0.60;0.60;;;6.20;99.90;;;;;;5072758;28;20032;-76
2022/01/19 11:41:50;;;;;;;1.90;0.70;;;6.20;99.90;;;;;;5072690;28;20024;-75
2022/01/19 11:44:39;;;;;;;3.10;0.68;;;6.20;99.90;;;;;;5072455;28;20074;-76
2022/01/19 11:47:25;;;;;;;0.80;0.50;;;6.20;99.90;;;;;;5064183;28;20028;-75
2022/01/19 11:50:03;;;;;;;1.48;0.60;;;6.20;99.90;;;;;;5072366;28;20559;-75
2022/01/19 11:52:37;;;;;;;0.85;0.60;;;6.20;99.90;;;;;;5071944;28;20028;-76
2022/01/19 11:55:15;;;;;;;0.50;0.50;;;6.20;99.90;;;;;;5072268;28;20032;-76
2022/01/19 11:57:42;;;;;;;0.40;0.40;;;6.20;99.90;;;;;;5072323;28;20031;-76
2022/01/19 12:00:15;;;;;;;1.65;0.63;;;6.20;99.90;;;;;;5056404;28;20021;-76
2022/01/19 12:02:47;;;;;;;3.88;0.60;;;6.20;99.90;;;;;;5070853;28;20506;-75
2022/01/19 12:05:35;;;;;;;0.43;0.43;;;6.20;99.90;;;;;;5060956;28;20028;-76
2022/01/19 12:08:18;;;;;;;2.35;0.60;;;6.20;99.90;;;;;;5058950;28;20115;-76
2022/01/19 12:10:47;;;;;;;1.10;0.50;;;6.20;99.90;;;;;;5063015;28;20033;-76
2022/01/19 12:16:18;;;;;;;0.77;0.60;;;6.20;99.90;;;;;;5064992;28;20486;-76
2022/01/19 12:19:15;;;;;;;0.50;0.50;;;6.20;99.90;;;;;;5065722;28;20059;-74
2022/01/19 12:21:41;;;;;;;0.93;0.60;;;6.10;99.90;;;;;;5051722;28;20036;-75
2022/01/19 12:24:24;;;;;;;1.25;0.73;;;6.10;99.90;;;;;;5069903;28;20377;-76
2022/01/19 12:26:58;;;;;;;0.77;0.60;;;6.10;99.90;;;;;;5071330;28;20025;-76
2022/01/19 12:29:36;;;;;;;2.17;0.60;;;6.10;99.90;;;;;;5071965;28;20024;-71
2022/01/19 12:32:25;;;;;;;1.10;0.55;;;6.10;99.90;;;;;;5071771;28;20036;-71
2022/01/19 12:35:07;;;;;;;1.85;0.50;;;6.10;99.90;;;;;;5071671;28;20054;-71
2022/01/19 12:37:37;;;;;;;0.60;0.60;;;6.10;99.90;;;;;;5071567;28;20605;-73
2022/01/19 12:40:45;;;;;;;0.85;0.70;;;6.10;99.90;;;;;;5071837;28;20025;-73
2022/01/19 12:43:28;;;;;;;2.13;0.50;;;6.20;99.90;;;;;;5071124;28;20031;-73
2022/01/19 12:45:54;;;;;;;2.10;0.68;;;6.20;99.90;;;;;;5072049;28;20020;-73
2022/01/19 12:48:38;;;;;;;0.50;0.50;;;6.10;99.90;;;;;;5071853;28;20025;-73
2022/01/19 12:51:05;;;;;;;1.38;0.50;;;6.10;99.90;;;;;;5071907;28;20029;-73
2022/01/19 12:53:31;;;;;;;1.05;0.60;;;6.70;99.90;;;;;;5071614;28;20107;-73
2022/01/19 12:56:01;;;;;;;2.90;0.60;;;6.90;99.90;;;;;;5071830;28;20150;-73
2022/01/19 12:58:33;;;;;;;1.30;0.60;;;6.70;99.90;;;;;;5071733;28;20013;-74
2022/01/19 13:01:01;;;;;;;0.60;0.60;;;6.50;99.90;;;;;;5071619;28;20085;-74
2022/01/19 13:03:40;;;;;;;0.40;0.40;;;6.40;99.90;;;;;;5073735;28;20025;-74
2022/01/19 13:06:13;;;;;;;0.57;0.50;;;6.30;99.90;;;;;;5075754;28;20024;-74
2022/01/19 13:08:55;;;;;;;0.50;0.50;;;6.20;99.90;;;;;;5075594;28;20081;-74
2022/01/19 13:11:35;;;;;;;0.60;0.50;;;6.20;99.90;;;;;;5075111;28;20041;-74
2022/01/19 13:14:05;;;;;;;1.15;0.60;;;6.10;99.90;;;;;;5075609;28;20029;-74
2022/01/19 13:16:37;;;;;;;1.80;0.50;;;6.10;99.90;;;;;;5075333;28;20035;-74
2022/01/19 13:19:06;;;;;;;0.73;0.60;;;6.10;99.90;;;;;;5075108;28;20025;-74
2022/01/19 13:21:33;;;;;;;0.70;0.60;;;6.10;99.90;;;;;;5075107;28;20033;-74
2022/01/19 13:24:01;;;;;;;1.55;1.00;;;6.00;99.90;;;;;;5075389;28;20066;-69
2022/01/19 13:26:39;;;;;;;1.38;0.60;;;6.40;99.90;;;;;;5075018;28;20016;-76
2022/01/19 13:29:15;;;;;;;0.63;0.50;;;7.80;99.90;;;;;;5075012;28;20476;-72
2022/01/19 13:32:22;;;;;;;1.15;0.55;;;7.50;99.90;;;;;;5074896;28;20029;-70
2022/01/19 13:34:56;;;;;;;2.95;0.80;;;7.20;99.90;;;;;;5061735;28;20557;-70
2022/01/19 13:37:32;;;;;;;1.25;0.57;;;6.90;99.90;;;;;;5074595;28;20513;-70
2022/01/19 13:40:03;;;;;;;0.65;0.40;;;6.70;99.90;;;;;;5074974;28;20162;-70
2022/01/19 13:42:40;;;;;;;1.00;0.50;;;6.50;99.90;;;;;;5074987;28;20086;-69
2022/01/19 13:45:14;;;;;;;0.50;0.50;;;6.40;99.90;;;;;;5075041;28;20021;-69
2022/01/19 13:48:02;;;;;;;3.08;0.50;;;6.30;99.90;;;;;;5074532;28;20078;-69
2022/01/19 13:50:28;;;;;;;0.73;0.60;;;6.20;99.90;;;;;;5074480;28;20052;-69
2022/01/19 13:52:54;;;;;;;1.08;0.50;;;6.20;99.90;;;;;;5074643;28;20117;-69
2022/01/19 13:55:22;;;;;;;1.65;0.73;;;6.10;99.90;;;;;;5074406;28;20510;-69
2022/01/19 13:57:48;;;;;;;0.43;0.40;;;6.10;99.90;;;;;;5074792;28;20028;-69
2022/01/19 14:00:17;;;;;;;3.40;0.70;;;6.10;99.90;;;;;;5074475;28;20107;-68
2022/01/19 14:02:56;;;;;;;0.50;0.50;;;6.20;99.90;;;;;;5074513;28;20039;-68
2022/01/19 14:05:38;;;;;;;0.50;0.50;;;6.20;99.90;;;;;;5074327;28;20035;-69
2022/01/19 14:08:04;;;;;;;1.92;0.65;;;6.20;99.90;;;;;;5074674;28;20028;-69
2022/01/19 14:10:43;;;;;;;0.85;0.40;;;6.30;99.90;;;;;;5073686;28;20029;-69
2022/01/19 14:13:28;;;;;;;3.30;0.60;;;6.20;99.90;;;;;;5070790;28;20036;-69
2022/01/19 14:15:55;;;;;;;0.60;0.55;;;6.10;99.90;;;;;;5074018;28;20466;-69
2022/01/19 14:18:21;;;;;;;0.47;0.47;;;6.20;99.90;;;;;;5074259;28;20028;-71
2022/01/19 14:21:08;;;;;;;0.60;0.55;;;6.10;99.90;;;;;;5074117;28;20153;-71
2022/01/19 14:23:35;;;;;;;1.55;0.70;;;6.00;99.90;;;;;;5072250;28;20086;-73
2022/01/19 14:26:11;;;;;;;0.50;0.50;;;5.90;99.90;;;;;;5073956;28;20028;-72
2022/01/19 14:28:38;;;;;;;0.80;0.60;;;5.90;99.90;;;;;;5074234;28;20392;-73
2022/01/19 14:31:12;;;;;;;1.98;0.60;;;5.90;99.90;;;;;;5074186;28;20025;-72
2022/01/19 14:33:51;;;;;;;0.50;0.50;;;5.80;99.90;;;;;;5073982;28;20105;-72
2022/01/19 14:36:23;;;;;;;1.05;0.50;;;5.80;99.90;;;;;;5073848;28;20027;-72
2022/01/19 14:38:56;;;;;;;0.50;0.50;;;5.90;99.90;;;;;;5072411;28;20590;-70
2022/01/19 14:41:28;;;;;;;0.47;0.47;;;6.00;99.90;;;;;;5073583;28;20387;-69
2022/01/19 14:44:07;;;;;;;0.43;0.43;;;5.90;99.90;;;;;;5073801;28;20052;-71
2022/01/19 14:46:42;;;;;;;0.60;0.40;;;5.80;99.90;;;;;;5073795;28;20107;-70
2022/01/19 14:49:10;;;;;;;0.50;0.50;;;5.80;99.90;;;;;;5073671;28;20020;-70
2022/01/19 14:51:42;;;;;;;0.60;0.60;;;5.80;99.90;;;;;;5073443;28;20548;-72
2022/01/19 14:54:11;;;;;;;0.50;0.50;;;5.70;99.90;;;;;;5073539;28;20107;-70
2022/01/19 14:56:38;;;;;;;0.50;0.50;;;5.70;99.90;;;;;;5073390;28;20109;-71
2022/01/19 14:59:11;;;;;;;1.13;0.70;;;5.70;99.90;;;;;;5073366;28;20024;-70
2022/01/19 15:01:39;;;;;;;1.92;0.95;;;5.80;99.90;;;;;;5072433;28;20071;-70
2022/01/19 15:04:06;;;;;;;1.17;0.60;;;5.90;99.90;;;;;;5073269;28;20027;-68
2022/01/19 15:06:33;;;;;;;0.60;0.60;;;6.40;99.90;;;;;;5073319;28;20024;-68
2022/01/19 15:08:59;;;;;;;4.65;0.80;;;6.30;99.90;;;;;;5071800;28;20082;-74
2022/01/19 15:11:25;;;;;;;0.93;0.77;;;7.10;99.90;;;;;;5072967;28;20032;-74
2022/01/19 15:13:51;;;;;;;2.90;0.60;;;9.30;99.90;;;;;;5073108;28;20063;-71
2022/01/19 15:16:17;;;;;;;3.17;0.93;;;10.70;99.90;;;;;;5073328;28;20035;-71
2022/01/19 15:18:44;;;;;;;1.02;0.73;;;10.40;99.90;;;;;;5071986;28;20027;-71
2022/01/19 15:21:10;;;;;;;1.92;1.00;;;9.40;99.90;;;;;;5072706;28;20016;-71
2022/01/19 15:23:36;;;;;;;2.92;1.15;;;8.50;99.90;;;;;;5072247;28;20058;-71
2022/01/19 15:26:03;;;;;;;1.83;0.80;;;8.10;99.90;;;;;;5068996;28;20373;-73